Time;durP1;ratioP1;P1;durP2;ratioP2;P2;SDS_P1;SDS_P2;PMS_P1;PMS_P2;Temp;Humidity;BMP_temperature;BMP_pressure;BME280_temperature;BME280_humidity;BME280_pressure;Samples;Min_cycle;Max_cycle;Signal;HPM_P1;HPM_P2
2022/04/16 00:02:03;;;;;;;0.80;0.63;;;7.30;99.90;;;;;;5051734;28;20948;-74
2022/04/16 00:04:30;;;;;;;1.17;1.07;;;7.20;99.90;;;;;;5051825;28;20163;-74
2022/04/16 00:06:56;;;;;;;0.80;0.60;;;7.20;99.90;;;;;;5050278;28;20252;-74
2022/04/16 00:09:22;;;;;;;2.30;1.23;;;7.20;99.90;;;;;;5051395;28;20918;-74
2022/04/16 00:11:48;;;;;;;1.00;0.90;;;7.20;99.90;;;;;;5051740;28;20402;-74
2022/04/16 00:14:15;;;;;;;1.67;1.10;;;7.10;99.90;;;;;;5050428;28;20417;-74
2022/04/16 00:16:41;;;;;;;1.23;1.00;;;7.10;99.90;;;;;;5051445;28;20509;-74
2022/04/16 00:19:08;;;;;;;3.23;1.27;;;7.10;99.90;;;;;;5051386;28;20997;-74
2022/04/16 00:21:35;;;;;;;0.80;0.70;;;7.10;99.90;;;;;;5051549;28;20921;-74
2022/04/16 00:24:01;;;;;;;1.50;1.40;;;7.10;99.90;;;;;;5051612;28;20482;-74
2022/04/16 00:26:27;;;;;;;1.07;0.97;;;7.10;99.90;;;;;;5051230;28;20417;-73
2022/04/16 00:28:53;;;;;;;5.23;1.17;;;7.00;99.90;;;;;;5051024;28;20527;-73
2022/04/16 00:31:19;;;;;;;0.70;0.57;;;7.00;99.90;;;;;;5051409;28;20408;-73
2022/04/16 00:33:46;;;;;;;1.00;0.70;;;7.00;99.90;;;;;;5054556;28;20405;-73
2022/04/16 00:36:14;;;;;;;1.20;1.10;;;7.00;99.90;;;;;;5055237;28;20274;-74
2022/04/16 00:38:40;;;;;;;0.90;0.80;;;7.00;99.90;;;;;;5054934;28;20401;-74
2022/04/16 00:41:06;;;;;;;0.70;0.50;;;6.90;99.90;;;;;;5055126;28;20864;-74
2022/04/16 00:43:31;;;;;;;0.80;0.70;;;6.90;99.90;;;;;;5055080;28;20433;-74
2022/04/16 00:45:58;;;;;;;0.80;0.70;;;6.90;99.90;;;;;;5055058;28;20857;-74
2022/04/16 00:48:24;;;;;;;0.90;0.70;;;6.90;99.90;;;;;;5054817;28;20173;-74
2022/04/16 00:50:54;;;;;;;0.70;0.50;;;6.90;99.90;;;;;;5054784;28;20500;-74
2022/04/16 00:53:21;;;;;;;0.70;0.60;;;6.90;99.90;;;;;;5054977;28;20408;-74
2022/04/16 00:55:47;;;;;;;0.80;0.70;;;6.80;99.90;;;;;;5054888;28;20428;-74
2022/04/16 00:58:12;;;;;;;1.10;0.87;;;6.80;99.90;;;;;;5054690;28;20450;-74
2022/04/16 01:00:38;;;;;;;2.80;0.90;;;6.80;99.90;;;;;;5054831;28;20452;-73
2022/04/16 01:03:05;;;;;;;0.80;0.70;;;6.80;99.90;;;;;;5053478;28;20214;-73
2022/04/16 01:05:31;;;;;;;1.00;0.80;;;6.80;99.90;;;;;;5054648;28;20170;-73
2022/04/16 01:07:58;;;;;;;0.70;0.50;;;6.80;99.90;;;;;;5054749;28;20742;-74
2022/04/16 01:10:29;;;;;;;3.67;2.07;;;6.80;99.90;;;;;;5053324;28;20174;-74
2022/04/16 01:12:59;;;;;;;0.70;0.50;;;6.80;99.90;;;;;;5054614;28;20491;-73
2022/04/16 01:15:27;;;;;;;2.40;1.00;;;6.70;99.90;;;;;;5054641;28;20757;-73
2022/04/16 01:17:54;;;;;;;1.07;0.60;;;6.70;99.90;;;;;;5054410;28;20424;-74
2022/04/16 01:20:20;;;;;;;2.33;1.43;;;6.70;99.90;;;;;;5054158;28;20452;-74
2022/04/16 01:22:50;;;;;;;0.70;0.60;;;6.70;99.90;;;;;;5054380;28;20404;-74
2022/04/16 01:25:16;;;;;;;0.70;0.50;;;6.70;99.90;;;;;;5054374;28;20919;-73
2022/04/16 01:27:45;;;;;;;0.70;0.50;;;6.70;99.90;;;;;;5054306;28;20424;-74
2022/04/16 01:30:13;;;;;;;0.77;0.50;;;6.70;99.90;;;;;;5053962;28;20820;-74
2022/04/16 01:32:40;;;;;;;0.70;0.50;;;6.70;99.90;;;;;;5054221;28;20459;-74
2022/04/16 01:35:06;;;;;;;0.70;0.60;;;6.70;99.90;;;;;;5054250;28;20402;-74
2022/04/16 01:37:34;;;;;;;1.00;0.80;;;6.70;99.90;;;;;;5054141;28;20428;-73
2022/04/16 01:40:01;;;;;;;0.70;0.50;;;6.70;99.90;;;;;;5053807;28;21024;-74
2022/04/16 01:42:29;;;;;;;1.90;1.80;;;6.70;99.90;;;;;;5054132;28;20409;-73
2022/04/16 01:45:01;;;;;;;0.80;0.60;;;6.70;99.90;;;;;;5053792;28;20409;-73
2022/04/16 01:47:28;;;;;;;1.77;1.67;;;6.70;99.90;;;;;;5053920;28;20442;-74
2022/04/16 01:49:55;;;;;;;2.93;2.73;;;6.70;99.90;;;;;;5052416;28;20413;-74
2022/04/16 01:52:21;;;;;;;0.80;0.60;;;6.70;99.90;;;;;;5054023;28;20435;-73
2022/04/16 01:54:47;;;;;;;0.90;0.80;;;6.70;99.90;;;;;;5053788;28;20433;-73
2022/04/16 01:57:13;;;;;;;1.17;0.70;;;6.70;99.90;;;;;;5053758;28;20433;-74
2022/04/16 01:59:39;;;;;;;1.00;0.67;;;6.70;99.90;;;;;;5053311;28;20452;-74
2022/04/16 02:02:04;;;;;;;1.73;1.57;;;6.70;99.90;;;;;;5053788;28;20208;-74
2022/04/16 02:04:32;;;;;;;1.07;0.70;;;6.70;99.90;;;;;;5053572;28;20159;-74
2022/04/16 02:06:58;;;;;;;0.80;0.80;;;6.70;99.90;;;;;;5053691;28;20179;-74
2022/04/16 02:09:23;;;;;;;1.27;1.17;;;6.70;99.90;;;;;;5053330;28;20413;-74
2022/04/16 02:11:49;;;;;;;3.47;0.70;;;6.70;99.90;;;;;;5053597;28;20163;-74
2022/04/16 02:14:14;;;;;;;0.70;0.50;;;6.70;99.90;;;;;;5053514;28;20170;-73
2022/04/16 02:16:40;;;;;;;0.80;0.67;;;6.70;99.90;;;;;;5053393;28;20187;-73
2022/04/16 02:19:06;;;;;;;1.03;0.90;;;6.70;99.90;;;;;;5053312;28;20213;-73
2022/04/16 02:21:32;;;;;;;0.77;0.63;;;6.70;99.90;;;;;;5053144;28;20194;-74
2022/04/16 02:23:58;;;;;;;0.70;0.50;;;6.70;99.90;;;;;;5053446;28;20404;-73
2022/04/16 02:26:26;;;;;;;0.70;0.50;;;6.70;99.90;;;;;;5051855;28;20187;-74
2022/04/16 02:28:51;;;;;;;0.70;0.60;;;6.70;99.90;;;;;;5052861;28;20406;-73
2022/04/16 02:31:17;;;;;;;0.90;0.70;;;6.60;99.90;;;;;;5052910;28;20406;-74
2022/04/16 02:33:43;;;;;;;0.70;0.50;;;6.60;99.90;;;;;;5053136;28;20170;-74
2022/04/16 02:36:10;;;;;;;0.70;0.50;;;6.60;99.90;;;;;;5052825;28;20229;-74
2022/04/16 02:38:35;;;;;;;0.70;0.50;;;6.60;99.90;;;;;;5052868;28;20254;-74
2022/04/16 02:41:01;;;;;;;0.70;0.50;;;6.60;99.90;;;;;;5052968;28;21193;-74
2022/04/16 02:43:26;;;;;;;0.70;0.50;;;6.50;99.90;;;;;;5052878;28;20169;-74
2022/04/16 02:48:36;;;;;;;0.70;0.50;;;6.50;99.90;;;;;;5052617;28;20173;-73
2022/04/16 02:51:02;;;;;;;1.73;0.80;;;6.50;99.90;;;;;;5052794;28;20413;-73
2022/04/16 02:53:29;;;;;;;0.70;0.50;;;6.40;99.90;;;;;;5052780;28;20171;-73
2022/04/16 02:55:55;;;;;;;1.90;1.80;;;6.40;99.90;;;;;;5052031;28;20502;-74
2022/04/16 02:58:21;;;;;;;0.80;0.70;;;6.40;99.90;;;;;;5052376;28;20401;-73
2022/04/16 03:00:47;;;;;;;0.70;0.50;;;6.40;99.90;;;;;;5052542;28;20230;-74
2022/04/16 03:03:12;;;;;;;0.70;0.50;;;6.30;99.90;;;;;;5052814;28;20826;-74
2022/04/16 03:05:38;;;;;;;0.80;0.60;;;6.30;99.90;;;;;;5052550;28;20622;-73
2022/04/16 03:08:12;;;;;;;0.80;0.60;;;6.30;99.90;;;;;;5052463;28;20167;-74
2022/04/16 03:10:39;;;;;;;0.70;0.50;;;6.30;99.90;;;;;;5052335;28;20474;-74
2022/04/16 03:13:04;;;;;;;1.13;1.03;;;6.20;99.90;;;;;;5052415;28;20893;-74
2022/04/16 03:18:14;;;;;;;4.80;1.67;;;6.20;99.90;;;;;;5052134;28;20169;-73
2022/04/16 03:20:42;;;;;;;0.80;0.70;;;6.20;99.90;;;;;;5052131;28;20448;-73
2022/04/16 03:23:09;;;;;;;0.70;0.60;;;6.20;99.90;;;;;;5051011;28;20221;-74
2022/04/16 03:25:37;;;;;;;0.70;0.50;;;6.10;99.90;;;;;;5052234;28;20402;-74
2022/04/16 03:28:03;;;;;;;1.00;0.80;;;6.10;99.90;;;;;;5052256;28;20783;-74
2022/04/16 03:30:28;;;;;;;0.70;0.50;;;6.10;99.90;;;;;;5051960;28;20423;-74
2022/04/16 03:32:54;;;;;;;3.33;0.70;;;6.10;99.90;;;;;;5052165;28;20167;-74
2022/04/16 03:35:21;;;;;;;1.10;1.00;;;6.10;99.90;;;;;;5052178;28;20633;-74
2022/04/16 03:37:46;;;;;;;0.70;0.50;;;6.00;99.90;;;;;;5050572;28;20190;-73
2022/04/16 03:40:12;;;;;;;0.90;0.90;;;6.00;99.90;;;;;;5051673;28;20457;-74
2022/04/16 03:42:50;;;;;;;1.30;0.70;;;6.00;99.90;;;;;;5051973;28;20170;-74
2022/04/16 03:45:20;;;;;;;0.90;0.80;;;6.00;99.90;;;;;;5050665;28;20409;-74
2022/04/16 03:47:50;;;;;;;2.30;1.27;;;6.00;99.90;;;;;;5051757;28;20428;-74
2022/04/16 03:50:17;;;;;;;1.23;1.13;;;5.90;99.90;;;;;;5051722;28;20401;-73
2022/04/16 03:52:43;;;;;;;0.80;0.70;;;5.90;99.90;;;;;;5050564;28;20965;-74
2022/04/16 04:00:54;;;;;;;0.77;0.53;;;5.90;99.90;;;;;;5051922;28;20817;-73
2022/04/16 04:03:20;;;;;;;0.80;0.70;;;5.80;99.90;;;;;;5051645;28;20414;-73
2022/04/16 04:05:48;;;;;;;0.90;0.90;;;5.80;99.90;;;;;;5051650;28;20185;-74
2022/04/16 04:08:14;;;;;;;0.90;0.60;;;5.80;99.90;;;;;;5052764;28;20417;-73
2022/04/16 04:10:39;;;;;;;1.80;1.70;;;5.80;99.90;;;;;;5055760;28;20960;-74
2022/04/16 04:13:05;;;;;;;0.70;0.50;;;5.80;99.90;;;;;;5055747;28;20677;-74
2022/04/16 04:15:31;;;;;;;0.70;0.60;;;5.70;99.90;;;;;;5055796;28;20224;-73
2022/04/16 04:17:58;;;;;;;0.80;0.60;;;5.70;99.90;;;;;;5055567;28;20190;-74
2022/04/16 04:20:25;;;;;;;2.80;1.27;;;5.70;99.90;;;;;;5055266;28;20186;-76
2022/04/16 04:22:50;;;;;;;2.03;1.00;;;5.60;99.90;;;;;;5055582;28;20397;-76
2022/04/16 04:25:16;;;;;;;0.80;0.70;;;5.60;99.90;;;;;;5055526;28;20952;-74
2022/04/16 04:27:41;;;;;;;0.70;0.50;;;5.60;99.90;;;;;;5055361;28;20321;-73
2022/04/16 04:30:08;;;;;;;0.80;0.70;;;5.60;99.90;;;;;;5055086;28;20236;-73
2022/04/16 04:32:34;;;;;;;0.70;0.50;;;5.60;99.90;;;;;;5055447;28;20514;-73
2022/04/16 04:34:59;;;;;;;0.90;0.80;;;5.60;99.90;;;;;;5055319;28;20411;-73
2022/04/16 04:37:25;;;;;;;2.00;1.80;;;5.60;99.90;;;;;;5055388;28;20187;-73
2022/04/16 04:39:50;;;;;;;0.80;0.60;;;5.60;99.90;;;;;;5054996;28;20195;-74
2022/04/16 04:42:26;;;;;;;1.07;0.77;;;5.60;99.90;;;;;;5055334;28;20281;-73
2022/04/16 04:44:53;;;;;;;1.83;0.80;;;5.60;99.90;;;;;;5055125;28;20186;-73
2022/04/16 04:47:18;;;;;;;0.70;0.50;;;5.60;99.90;;;;;;5055124;28;20467;-74
2022/04/16 04:49:44;;;;;;;0.77;0.67;;;5.60;99.90;;;;;;5054815;28;20413;-74
2022/04/16 04:52:10;;;;;;;1.47;1.17;;;5.60;99.90;;;;;;5055180;28;20179;-74
2022/04/16 04:54:35;;;;;;;1.17;1.07;;;5.60;99.90;;;;;;5053538;28;20179;-74
2022/04/16 04:57:03;;;;;;;0.87;0.80;;;5.70;99.90;;;;;;5054968;28;20623;-74
2022/04/16 04:59:28;;;;;;;1.00;0.87;;;5.70;99.90;;;;;;5054641;28;20174;-74
2022/04/16 05:01:54;;;;;;;1.13;0.70;;;5.70;99.90;;;;;;5054753;28;20406;-74
2022/04/16 05:04:20;;;;;;;0.70;0.53;;;5.70;99.90;;;;;;5054763;28;20171;-74
2022/04/16 05:06:45;;;;;;;1.07;1.07;;;5.70;99.90;;;;;;5054592;28;20317;-74
2022/04/16 05:09:11;;;;;;;2.83;1.03;;;5.80;99.90;;;;;;5054487;28;20689;-74
2022/04/16 05:11:36;;;;;;;1.43;1.33;;;5.80;99.90;;;;;;5054646;28;20512;-74
2022/04/16 05:14:02;;;;;;;2.03;0.73;;;6.00;99.90;;;;;;5054784;28;20257;-74
2022/04/16 05:16:28;;;;;;;3.33;0.90;;;6.10;99.90;;;;;;5054617;28;20245;-74
2022/04/16 05:18:53;;;;;;;1.00;0.80;;;6.30;99.90;;;;;;5053812;28;20171;-76
2022/04/16 05:21:19;;;;;;;3.53;0.77;;;6.50;99.90;;;;;;5053322;28;20198;-73
2022/04/16 05:23:44;;;;;;;7.60;1.27;;;6.80;99.90;;;;;;5054461;28;20512;-74
2022/04/16 05:26:11;;;;;;;0.93;0.80;;;7.00;99.90;;;;;;5054361;28;20676;-74
2022/04/16 05:28:37;;;;;;;3.03;1.13;;;7.30;99.90;;;;;;5054190;28;20190;-73
2022/04/16 05:31:04;;;;;;;1.67;1.23;;;7.40;99.90;;;;;;5053136;28;20416;-73
2022/04/16 05:36:15;;;;;;;1.37;1.10;;;8.10;99.90;;;;;;5054579;28;20433;-74
2022/04/16 05:38:40;;;;;;;0.97;0.80;;;8.70;99.90;;;;;;5054035;28;20862;-73
2022/04/16 05:41:06;;;;;;;1.97;1.23;;;9.30;99.90;;;;;;5054204;28;20496;-74
2022/04/16 05:43:31;;;;;;;1.40;1.00;;;9.80;99.90;;;;;;5054095;28;20590;-74
2022/04/16 05:45:57;;;;;;;0.97;0.90;;;10.30;99.90;;;;;;5054003;28;20194;-74
2022/04/16 05:48:22;;;;;;;4.97;1.63;;;10.90;99.90;;;;;;5053988;28;20167;-73
2022/04/16 05:50:48;;;;;;;7.50;2.30;;;11.40;99.90;;;;;;5053870;28;20202;-74
2022/04/16 05:53:14;;;;;;;2.20;2.00;;;11.80;99.90;;;;;;5053929;28;20647;-74
2022/04/16 05:55:45;;;;;;;2.27;1.53;;;12.30;99.90;;;;;;5053834;28;20190;-74
2022/04/16 05:58:11;;;;;;;4.17;1.73;;;12.70;99.90;;;;;;5053979;28;20786;-74
2022/04/16 06:00:37;;;;;;;10.93;3.20;;;13.20;99.90;;;;;;5053585;28;20457;-74
2022/04/16 06:03:04;;;;;;;12.20;3.47;;;13.60;99.90;;;;;;5053822;28;20405;-75
2022/04/16 06:05:31;;;;;;;5.23;1.97;;;14.10;99.90;;;;;;5053818;28;20536;-74
2022/04/16 06:07:57;;;;;;;1.90;1.80;;;14.50;99.90;;;;;;5053550;28;20429;-74
2022/04/16 06:10:23;;;;;;;2.60;2.40;;;15.00;99.90;;;;;;5053555;28;20425;-74
2022/04/16 06:12:48;;;;;;;3.10;1.87;;;15.40;99.90;;;;;;5052400;28;20410;-74
2022/04/16 06:15:14;;;;;;;3.70;2.40;;;15.90;99.90;;;;;;5053537;28;20550;-74
2022/04/16 06:17:40;;;;;;;3.10;1.23;;;16.30;99.90;;;;;;5053455;28;20288;-74
2022/04/16 06:20:07;;;;;;;3.07;2.77;;;16.80;99.90;;;;;;5053018;28;20198;-75
2022/04/16 06:22:33;;;;;;;2.77;1.67;;;17.20;99.90;;;;;;5053553;28;20233;-75
2022/04/16 06:24:58;;;;;;;3.83;2.00;;;17.60;99.90;;;;;;5053300;28;20409;-75
2022/04/16 06:27:24;;;;;;;3.73;2.97;;;18.00;99.90;;;;;;5053324;28;20217;-75
2022/04/16 06:29:49;;;;;;;3.13;2.83;;;18.40;99.90;;;;;;5052108;28;20176;-73
2022/04/16 06:32:15;;;;;;;2.20;1.37;;;18.80;99.90;;;;;;5053307;28;20175;-73
2022/04/16 06:34:41;;;;;;;5.13;2.70;;;19.20;99.90;;;;;;5053034;28;20628;-73
2022/04/16 06:37:06;;;;;;;6.87;3.10;;;19.60;99.90;;;;;;5053052;28;20244;-73
2022/04/16 06:39:32;;;;;;;4.10;1.60;;;20.00;99.90;;;;;;5052642;28;20417;-73
2022/04/16 06:41:58;;;;;;;3.20;2.40;;;20.50;98.20;;;;;;5053083;28;20163;-73
2022/04/16 06:44:23;;;;;;;2.13;1.43;;;20.80;96.10;;;;;;5052884;28;20170;-73
2022/04/16 06:46:50;;;;;;;3.30;3.00;;;21.30;93.60;;;;;;5052943;28;20220;-73
2022/04/16 06:49:16;;;;;;;8.53;2.13;;;21.60;91.10;;;;;;5052571;28;20169;-73
2022/04/16 06:51:42;;;;;;;3.10;2.27;;;21.70;86.30;;;;;;5052903;28;20487;-73
2022/04/16 06:54:08;;;;;;;3.23;2.40;;;22.00;85.20;;;;;;5052649;28;20683;-73
2022/04/16 06:56:33;;;;;;;2.77;2.53;;;22.50;83.30;;;;;;5052512;28;20489;-73
2022/04/16 06:58:59;;;;;;;2.37;1.73;;;22.90;79.40;;;;;;5052304;28;20463;-74
2022/04/16 07:01:24;;;;;;;4.50;4.10;;;23.30;75.80;;;;;;5052773;28;20190;-74
2022/04/16 07:03:50;;;;;;;2.47;2.13;;;23.40;72.70;;;;;;5052620;28;20167;-74
2022/04/16 07:06:15;;;;;;;5.53;2.90;;;23.70;69.10;;;;;;5052564;28;20273;-73
2022/04/16 07:08:41;;;;;;;3.20;2.20;;;24.10;68.60;;;;;;5052411;28;20201;-74
2022/04/16 07:11:06;;;;;;;4.67;2.40;;;24.60;65.80;;;;;;5051197;28;20217;-75
2022/04/16 07:13:32;;;;;;;2.93;2.43;;;25.00;65.00;;;;;;5052548;28;20178;-73
2022/04/16 07:15:57;;;;;;;2.50;2.13;;;25.40;61.60;;;;;;5052298;28;20198;-74
2022/04/16 07:18:24;;;;;;;4.00;3.10;;;25.70;59.40;;;;;;5052517;28;20170;-74
2022/04/16 07:20:49;;;;;;;3.47;1.97;;;26.00;58.30;;;;;;5052006;28;20627;-74
2022/04/16 07:23:15;;;;;;;6.20;3.43;;;26.40;58.30;;;;;;5052365;28;20434;-74
2022/04/16 07:25:40;;;;;;;2.80;2.43;;;26.80;56.60;;;;;;5052170;28;20163;-74
2022/04/16 07:28:06;;;;;;;4.17;2.87;;;27.20;55.60;;;;;;5052211;28;20167;-74
2022/04/16 07:30:32;;;;;;;3.00;2.10;;;27.70;55.10;;;;;;5052174;28;20204;-74
2022/04/16 07:32:57;;;;;;;3.10;2.80;;;28.10;53.90;;;;;;5052378;28;20248;-74
2022/04/16 07:35:23;;;;;;;2.43;1.83;;;28.50;53.10;;;;;;5052266;28;20175;-74
2022/04/16 07:37:48;;;;;;;5.57;4.10;;;29.00;52.00;;;;;;5052020;28;20269;-74
2022/04/16 07:40:14;;;;;;;6.93;2.87;;;29.60;51.40;;;;;;5051771;28;20191;-74
2022/04/16 07:42:40;;;;;;;5.60;4.00;;;30.00;50.30;;;;;;5050587;28;20257;-74
2022/04/16 07:45:06;;;;;;;6.67;4.10;;;30.30;49.70;;;;;;5050645;28;20229;-75
2022/04/16 07:47:32;;;;;;;4.33;3.10;;;30.70;49.00;;;;;;5051892;28;20194;-74
2022/04/16 07:49:57;;;;;;;4.33;3.10;;;30.90;47.40;;;;;;5051683;28;20492;-75
2022/04/16 07:52:25;;;;;;;5.20;3.17;;;31.30;47.10;;;;;;5051973;28;20632;-74
2022/04/16 07:54:51;;;;;;;5.43;2.83;;;31.80;46.90;;;;;;5051791;28;20194;-74
2022/04/16 07:57:17;;;;;;;7.30;3.10;;;32.20;46.50;;;;;;5051842;28;20512;-74
2022/04/16 07:59:42;;;;;;;4.03;2.10;;;32.50;45.70;;;;;;5051516;28;20497;-74
2022/04/16 08:02:08;;;;;;;4.00;3.30;;;32.50;44.70;;;;;;5050456;28;20213;-74
2022/04/16 08:04:33;;;;;;;4.20;2.87;;;32.50;44.20;;;;;;5051773;28;20221;-74
2022/04/16 08:06:59;;;;;;;3.03;2.17;;;32.70;44.10;;;;;;5051685;28;20191;-74
2022/04/16 08:09:24;;;;;;;3.80;3.00;;;33.00;44.00;;;;;;5051674;28;20166;-74
2022/04/16 08:11:50;;;;;;;4.77;3.77;;;33.40;43.40;;;;;;5051643;28;20171;-74
2022/04/16 08:14:15;;;;;;;2.40;2.20;;;33.90;42.90;;;;;;5051741;28;20197;-75
2022/04/16 08:16:41;;;;;;;4.43;2.67;;;34.40;41.80;;;;;;5051584;28;20241;-74
2022/04/16 08:19:06;;;;;;;3.43;2.33;;;34.70;40.20;;;;;;5051361;28;20239;-74
2022/04/16 08:21:34;;;;;;;2.83;2.30;;;34.50;39.50;;;;;;5051581;28;20206;-74
2022/04/16 08:26:44;;;;;;;2.13;1.93;;;34.40;37.70;;;;;;5051828;28;20520;-74
2022/04/16 08:29:10;;;;;;;3.83;2.80;;;34.10;38.40;;;;;;5051391;28;20953;-75
2022/04/16 08:31:35;;;;;;;5.77;2.43;;;34.20;37.70;;;;;;5051522;28;20179;-74
2022/04/16 08:34:01;;;;;;;2.10;1.77;;;34.30;38.40;;;;;;5051523;28;20178;-74
2022/04/16 08:36:26;;;;;;;2.67;2.47;;;35.10;38.60;;;;;;5051502;28;20340;-74
2022/04/16 08:38:52;;;;;;;3.00;2.23;;;36.00;37.70;;;;;;5051227;28;20612;-74
2022/04/16 08:41:18;;;;;;;4.40;3.63;;;36.80;36.70;;;;;;5050085;28;20199;-74
2022/04/16 08:43:44;;;;;;;3.37;3.03;;;36.70;35.10;;;;;;5051370;28;20163;-74
2022/04/16 08:46:10;;;;;;;2.83;2.50;;;36.20;35.20;;;;;;5051305;28;20431;-74
2022/04/16 08:48:36;;;;;;;2.80;2.23;;;36.60;36.30;;;;;;5051456;28;20167;-75
2022/04/16 08:51:02;;;;;;;4.67;2.57;;;37.10;35.20;;;;;;5051147;28;20212;-74
2022/04/16 08:53:28;;;;;;;2.93;2.37;;;37.30;34.70;;;;;;5052362;28;20413;-74
2022/04/16 08:55:54;;;;;;;3.00;2.67;;;36.20;33.70;;;;;;5054843;28;20463;-74
2022/04/16 08:58:20;;;;;;;2.47;2.27;;;34.50;33.80;;;;;;5054950;28;20189;-74
2022/04/16 09:00:46;;;;;;;4.83;2.23;;;33.10;35.00;;;;;;5054689;28;20190;-74
2022/04/16 09:03:11;;;;;;;1.73;1.23;;;33.50;35.80;;;;;;5054822;28;20504;-75
2022/04/16 09:05:37;;;;;;;2.97;2.23;;;34.90;35.00;;;;;;5054772;28;20167;-75
2022/04/16 09:08:04;;;;;;;2.90;2.00;;;35.10;33.10;;;;;;5054754;28;20216;-74
2022/04/16 09:10:36;;;;;;;2.57;2.17;;;35.30;33.20;;;;;;5054499;28;20167;-75
2022/04/16 09:13:04;;;;;;;1.80;1.70;;;34.90;33.30;;;;;;5054678;28;20492;-75
2022/04/16 09:15:31;;;;;;;1.80;1.70;;;33.60;33.10;;;;;;5054615;28;20608;-74
2022/04/16 09:18:01;;;;;;;2.03;1.57;;;32.80;34.10;;;;;;5054553;28;20433;-74
2022/04/16 09:20:36;;;;;;;2.57;1.60;;;32.50;34.60;;;;;;5054233;28;20459;-74
2022/04/16 09:23:14;;;;;;;1.67;1.57;;;31.30;34.60;;;;;;5054575;28;20551;-74
2022/04/16 09:25:42;;;;;;;1.53;1.10;;;29.90;35.30;;;;;;5053131;28;20436;-74
2022/04/16 09:28:08;;;;;;;1.70;1.57;;;29.30;37.70;;;;;;5054429;28;20405;-74
2022/04/16 09:30:34;;;;;;;2.07;1.97;;;29.50;37.90;;;;;;5054150;28;20755;-73
2022/04/16 09:33:01;;;;;;;2.30;2.07;;;29.20;37.20;;;;;;5054330;28;20409;-73
2022/04/16 09:35:46;;;;;;;2.63;1.70;;;28.80;37.60;;;;;;5054280;28;20786;-73
2022/04/16 09:38:42;;;;;;;4.00;2.50;;;28.50;38.40;;;;;;5032853;28;20935;-74
2022/04/16 09:41:08;;;;;;;1.90;1.80;;;28.00;39.00;;;;;;5032927;28;20466;-74
2022/04/16 09:43:40;;;;;;;2.20;1.67;;;27.40;39.70;;;;;;5033648;28;20942;-74
2022/04/16 09:46:23;;;;;;;1.73;1.60;;;26.90;40.40;;;;;;5032935;28;20492;-74
2022/04/16 09:48:51;;;;;;;2.60;2.20;;;26.70;40.60;;;;;;5032855;28;20425;-74
2022/04/16 09:51:41;;;;;;;2.70;1.23;;;28.70;41.20;;;;;;5032848;28;20459;-74
2022/04/16 09:54:32;;;;;;;1.50;1.40;;;29.90;39.50;;;;;;5032590;28;20422;-75
2022/04/16 09:57:02;;;;;;;1.43;1.33;;;32.20;38.50;;;;;;5032738;28;20993;-74
2022/04/16 09:59:51;;;;;;;2.73;1.87;;;35.00;37.60;;;;;;5032488;28;20410;-75
2022/04/16 10:02:17;;;;;;;2.37;1.80;;;37.00;34.80;;;;;;5032870;28;20445;-75
2022/04/16 10:04:43;;;;;;;2.03;1.40;;;38.90;32.80;;;;;;5032241;28;20417;-75
2022/04/16 10:07:11;;;;;;;1.67;1.57;;;40.20;31.00;;;;;;5032485;28;20433;-75
2022/04/16 10:09:41;;;;;;;3.13;1.27;;;40.60;29.50;;;;;;5032500;28;20410;-75
2022/04/16 10:15:09;;;;;;;2.33;1.53;;;41.80;29.30;;;;;;5033981;28;20410;-75
2022/04/16 10:17:56;;;;;;;1.80;1.70;;;43.30;29.00;;;;;;5032299;28;20470;-75
2022/04/16 10:20:35;;;;;;;1.40;1.30;;;44.80;28.60;;;;;;5032418;28;20778;-76
2022/04/16 10:23:05;;;;;;;1.57;1.47;;;45.60;27.30;;;;;;5032540;28;20927;-75
2022/04/16 10:25:47;;;;;;;1.77;1.47;;;44.40;27.20;;;;;;5032220;28;20988;-74
2022/04/16 10:28:33;;;;;;;2.20;2.00;;;43.90;26.60;;;;;;5032164;28;20404;-75
2022/04/16 10:31:18;;;;;;;1.10;1.00;;;43.90;26.70;;;;;;5032003;28;20473;-74
2022/04/16 10:34:16;;;;;;;1.67;1.50;;;44.00;26.90;;;;;;5032181;28;20406;-75
2022/04/16 10:36:52;;;;;;;1.60;1.50;;;43.80;26.80;;;;;;5031819;28;20430;-75
2022/04/16 10:39:19;;;;;;;1.63;1.43;;;44.80;27.00;;;;;;5031898;28;20915;-76
2022/04/16 10:41:56;;;;;;;1.63;1.53;;;45.00;26.00;;;;;;5033196;28;20403;-76
2022/04/16 10:44:23;;;;;;;1.70;1.40;;;44.80;25.80;;;;;;5032926;28;20414;-75
2022/04/16 10:46:50;;;;;;;1.97;1.20;;;44.90;25.60;;;;;;5032844;28;20433;-75
2022/04/16 10:49:17;;;;;;;2.10;1.70;;;45.20;25.90;;;;;;5032848;28;20422;-75
2022/04/16 10:51:43;;;;;;;1.60;1.50;;;46.00;25.80;;;;;;5032987;28;20458;-76
2022/04/16 10:54:10;;;;;;;1.60;1.50;;;46.60;25.50;;;;;;5032837;28;20405;-76
2022/04/16 10:56:39;;;;;;;1.60;1.50;;;47.10;25.20;;;;;;5031524;28;20604;-76
2022/04/16 10:59:05;;;;;;;1.40;1.30;;;47.40;25.30;;;;;;5032709;28;20410;-75
2022/04/16 11:01:31;;;;;;;1.13;1.03;;;47.10;24.70;;;;;;5032745;28;20477;-75
2022/04/16 11:03:58;;;;;;;1.30;1.20;;;47.40;24.90;;;;;;5032697;28;20776;-75
2022/04/16 11:06:35;;;;;;;1.20;1.10;;;48.00;24.80;;;;;;5032632;28;20512;-75
2022/04/16 11:09:00;;;;;;;2.07;1.97;;;48.50;24.10;;;;;;5032471;28;20171;-75
2022/04/16 11:11:26;;;;;;;1.33;1.17;;;48.40;24.20;;;;;;5032473;28;20443;-75
2022/04/16 11:13:52;;;;;;;1.40;1.30;;;48.40;24.30;;;;;;5032546;28;20160;-75
2022/04/16 11:16:23;;;;;;;1.40;1.30;;;48.80;24.20;;;;;;5031929;28;20222;-76
2022/04/16 11:18:49;;;;;;;1.30;1.20;;;48.90;23.80;;;;;;5032633;28;20168;-75
2022/04/16 11:21:18;;;;;;;1.40;1.30;;;49.10;23.70;;;;;;5032308;28;20389;-75
2022/04/16 11:24:14;;;;;;;1.50;1.40;;;48.20;23.50;;;;;;5032384;28;20410;-75
2022/04/16 11:34:58;;;;;;;1.10;1.00;;;48.30;23.40;;;;;;5032588;28;20452;-75
2022/04/16 11:37:29;;;;;;;1.43;1.23;;;48.10;23.30;;;;;;5031257;28;20396;-75
2022/04/16 11:40:05;;;;;;;1.40;1.20;;;47.40;22.90;;;;;;5030815;28;20398;-75
2022/04/16 11:42:31;;;;;;;1.20;1.10;;;45.80;23.20;;;;;;5030819;28;20909;-74
2022/04/16 11:44:57;;;;;;;1.30;1.20;;;45.30;23.60;;;;;;5032094;28;20376;-73
2022/04/16 11:47:25;;;;;;;1.33;1.23;;;45.90;23.90;;;;;;5031654;28;20406;-73
2022/04/16 11:49:53;;;;;;;1.50;1.40;;;46.80;23.70;;;;;;5030541;28;20419;-73
2022/04/16 11:52:30;;;;;;;1.60;1.50;;;47.30;23.00;;;;;;5030661;28;20505;-73
2022/04/16 11:55:10;;;;;;;1.40;1.30;;;47.50;22.90;;;;;;5031908;28;20973;-73
2022/04/16 11:57:36;;;;;;;1.30;1.20;;;48.00;23.10;;;;;;5031376;28;20419;-73
2022/04/16 12:00:10;;;;;;;1.30;1.20;;;48.50;22.80;;;;;;5031667;28;20489;-73
2022/04/16 12:02:42;;;;;;;1.63;1.53;;;49.00;22.70;;;;;;5031802;28;20403;-73
2022/04/16 12:05:08;;;;;;;2.27;2.07;;;49.60;22.90;;;;;;5031845;28;20392;-73
2022/04/16 12:07:34;;;;;;;1.50;1.40;;;49.80;22.60;;;;;;5031686;28;21006;-73
2022/04/16 12:10:02;;;;;;;1.30;1.20;;;50.00;22.90;;;;;;5031545;28;20188;-73
2022/04/16 12:12:28;;;;;;;3.50;3.30;;;50.70;22.70;;;;;;5031765;28;20402;-73
2022/04/16 12:14:54;;;;;;;1.30;1.20;;;51.40;22.50;;;;;;5031871;28;20415;-73
2022/04/16 12:17:29;;;;;;;1.60;1.50;;;51.40;21.80;;;;;;5031754;28;20422;-73
2022/04/16 12:20:05;;;;;;;1.17;1.07;;;51.40;21.90;;;;;;5031536;28;20387;-73
2022/04/16 12:22:51;;;;;;;1.40;1.30;;;51.50;22.00;;;;;;5031730;28;20993;-73
2022/04/16 12:25:19;;;;;;;1.50;1.30;;;51.40;21.50;;;;;;5030496;28;20778;-73
2022/04/16 12:27:56;;;;;;;1.50;1.40;;;51.50;21.70;;;;;;5031696;28;20442;-73
2022/04/16 12:30:24;;;;;;;1.40;1.30;;;51.60;21.20;;;;;;5035333;28;20453;-73
2022/04/16 12:32:59;;;;;;;1.30;1.20;;;51.60;21.50;;;;;;5035608;28;20806;-74
2022/04/16 12:35:27;;;;;;;1.30;1.20;;;52.00;21.60;;;;;;5035510;28;20735;-75
2022/04/16 12:37:54;;;;;;;1.60;1.40;;;52.50;21.70;;;;;;5035494;28;20873;-75
2022/04/16 12:40:21;;;;;;;1.73;1.50;;;52.60;21.10;;;;;;5035182;28;20395;-75
2022/04/16 12:42:46;;;;;;;1.20;1.10;;;52.70;21.30;;;;;;5035400;28;20376;-75
2022/04/16 12:45:12;;;;;;;1.60;1.50;;;52.90;21.40;;;;;;5035446;28;20424;-74
2022/04/16 12:47:38;;;;;;;1.47;1.37;;;52.80;20.90;;;;;;5035140;28;20194;-74
2022/04/16 12:50:04;;;;;;;1.80;1.70;;;52.70;20.90;;;;;;5034683;28;20541;-74
2022/04/16 12:52:29;;;;;;;1.67;1.40;;;52.30;20.60;;;;;;5033858;28;20172;-74
2022/04/16 12:54:55;;;;;;;1.47;1.37;;;51.50;21.00;;;;;;5035050;28;20429;-74
2022/04/16 12:57:20;;;;;;;1.50;1.40;;;51.10;21.30;;;;;;5035229;28;20198;-74
2022/04/16 12:59:46;;;;;;;1.40;1.30;;;50.70;21.30;;;;;;5034993;28;20164;-74
2022/04/16 13:02:11;;;;;;;1.37;1.27;;;50.40;21.40;;;;;;5035114;28;20175;-74
2022/04/16 13:04:37;;;;;;;1.20;1.10;;;50.00;21.20;;;;;;5034972;28;20171;-74
2022/04/16 13:07:03;;;;;;;1.60;1.50;;;49.80;21.40;;;;;;5034905;28;20194;-74
2022/04/16 13:09:29;;;;;;;1.40;1.20;;;49.40;21.30;;;;;;5033505;28;20172;-75
2022/04/16 13:11:54;;;;;;;1.57;1.47;;;48.60;21.20;;;;;;5033558;28;20199;-74
2022/04/16 13:14:20;;;;;;;2.73;1.60;;;48.00;21.30;;;;;;5034786;28;20655;-74
2022/04/16 13:16:45;;;;;;;1.80;1.30;;;47.90;21.80;;;;;;5034707;28;20221;-74
2022/04/16 13:19:12;;;;;;;1.53;1.43;;;48.00;22.10;;;;;;5034523;28;20178;-74
2022/04/16 13:21:38;;;;;;;1.40;1.30;;;48.00;22.00;;;;;;5033385;28;20175;-74